sensor_id;sensor_type;location;lat;lon;timestamp;pressure;altitude;pressure_sealevel;temperature
18474;BMP180;30265;52.408;13.500;2022-11-20T00:09:46;100932.00;;;-0.50
18474;BMP180;30265;52.408;13.500;2022-11-20T00:20:10;100937.00;;;-0.50
18474;BMP180;30265;52.408;13.500;2022-11-20T00:30:33;100921.00;;;-0.40
18474;BMP180;30265;52.408;13.500;2022-11-20T00:40:56;100927.00;;;-0.50
18474;BMP180;30265;52.408;13.500;2022-11-20T00:51:22;100932.00;;;-0.60
18474;BMP180;30265;52.408;13.500;2022-11-20T01:01:45;100939.00;;;-0.60
18474;BMP180;30265;52.408;13.500;2022-11-20T01:12:08;100938.00;;;-0.60
18474;BMP180;30265;52.408;13.500;2022-11-20T01:22:30;100929.00;;;-0.60
18474;BMP180;30265;52.408;13.500;2022-11-20T01:32:54;100933.00;;;-0.70
18474;BMP180;30265;52.408;13.500;2022-11-20T01:43:18;100939.00;;;-0.60
18474;BMP180;30265;52.408;13.500;2022-11-20T01:53:45;100937.00;;;-0.50
18474;BMP180;30265;52.408;13.500;2022-11-20T02:04:08;100921.00;;;-0.70
18474;BMP180;30265;52.408;13.500;2022-11-20T02:14:33;100910.00;;;-0.70
18474;BMP180;30265;52.408;13.500;2022-11-20T02:24:56;100898.00;;;-0.80
18474;BMP180;30265;52.408;13.500;2022-11-20T02:35:53;100895.00;;;-0.80
18474;BMP180;30265;52.408;13.500;2022-11-20T02:46:16;100889.00;;;-0.70
18474;BMP180;30265;52.408;13.500;2022-11-20T02:56:37;100889.00;;;-0.80
18474;BMP180;30265;52.408;13.500;2022-11-20T03:07:01;100878.00;;;-1.10
18474;BMP180;30265;52.408;13.500;2022-11-20T03:17:23;100883.00;;;-1.30
18474;BMP180;30265;52.408;13.500;2022-11-20T03:27:46;100866.00;;;-1.30
18474;BMP180;30265;52.408;13.500;2022-11-20T03:38:08;100874.00;;;-1.40
18474;BMP180;30265;52.408;13.500;2022-11-20T03:48:31;100864.00;;;-1.20
18474;BMP180;30265;52.408;13.500;2022-11-20T03:58:54;100867.00;;;-1.10
18474;BMP180;30265;52.408;13.500;2022-11-20T04:09:17;100865.00;;;-1.00
18474;BMP180;30265;52.408;13.500;2022-11-20T04:19:39;100860.00;;;-1.10
18474;BMP180;30265;52.408;13.500;2022-11-20T04:30:02;100872.00;;;-1.00
18474;BMP180;30265;52.408;13.500;2022-11-20T04:40:26;100853.00;;;-1.00
18474;BMP180;30265;52.408;13.500;2022-11-20T04:50:50;100845.00;;;-0.90
18474;BMP180;30265;52.408;13.500;2022-11-20T05:01:13;100857.00;;;-0.80
18474;BMP180;30265;52.408;13.500;2022-11-20T05:11:36;100822.00;;;-0.80
18474;BMP180;30265;52.408;13.500;2022-11-20T05:21:58;100823.00;;;-0.80
18474;BMP180;30265;52.408;13.500;2022-11-20T05:32:21;100822.00;;;-0.70
18474;BMP180;30265;52.408;13.500;2022-11-20T05:42:45;100825.00;;;-0.60
18474;BMP180;30265;52.408;13.500;2022-11-20T05:53:08;100818.00;;;-0.60
18474;BMP180;30265;52.408;13.500;2022-11-20T06:03:30;100813.00;;;-0.50
18474;BMP180;30265;52.408;13.500;2022-11-20T06:13:53;100812.00;;;-0.50
18474;BMP180;30265;52.408;13.500;2022-11-20T06:24:15;100809.00;;;-0.40
18474;BMP180;30265;52.408;13.500;2022-11-20T06:34:38;100817.00;;;-0.50
18474;BMP180;30265;52.408;13.500;2022-11-20T06:45:00;100811.00;;;-0.50
18474;BMP180;30265;52.408;13.500;2022-11-20T06:55:23;100811.00;;;-0.50
18474;BMP180;30265;52.408;13.500;2022-11-20T07:05:45;100805.00;;;-0.60
18474;BMP180;30265;52.408;13.500;2022-11-20T07:16:08;100809.00;;;-0.70
18474;BMP180;30265;52.408;13.500;2022-11-20T07:26:30;100803.00;;;-0.70
18474;BMP180;30265;52.408;13.500;2022-11-20T07:36:53;100795.00;;;-0.70
18474;BMP180;30265;52.408;13.500;2022-11-20T07:47:15;100797.00;;;-0.80
18474;BMP180;30265;52.408;13.500;2022-11-20T07:57:38;100792.00;;;-0.60
18474;BMP180;30265;52.408;13.500;2022-11-20T08:07:59;100778.00;;;-0.40
18474;BMP180;30265;52.408;13.500;2022-11-20T08:18:22;100777.00;;;-0.40
18474;BMP180;30265;52.408;13.500;2022-11-20T08:28:53;100782.00;;;-0.20
18474;BMP180;30265;52.408;13.500;2022-11-20T08:39:17;100777.00;;;0.00
18474;BMP180;30265;52.408;13.500;2022-11-20T08:49:39;100778.00;;;-0.20
18474;BMP180;30265;52.408;13.500;2022-11-20T09:00:03;100783.00;;;-0.30
18474;BMP180;30265;52.408;13.500;2022-11-20T09:10:26;100781.00;;;-0.20
18474;BMP180;30265;52.408;13.500;2022-11-20T09:20:50;100793.00;;;-0.10
18474;BMP180;30265;52.408;13.500;2022-11-20T09:31:19;100790.00;;;-0.30
18474;BMP180;30265;52.408;13.500;2022-11-20T09:41:57;100769.00;;;-0.40
18474;BMP180;30265;52.408;13.500;2022-11-20T09:52:30;100774.00;;;-0.40
18474;BMP180;30265;52.408;13.500;2022-11-20T10:03:00;100765.00;;;-0.40
18474;BMP180;30265;52.408;13.500;2022-11-20T10:13:38;100742.00;;;-0.40
18474;BMP180;30265;52.408;13.500;2022-11-20T10:24:29;100746.00;;;-0.30
18474;BMP180;30265;52.408;13.500;2022-11-20T10:34:57;100740.00;;;-0.20
18474;BMP180;30265;52.408;13.500;2022-11-20T10:45:36;100735.00;;;0.00
18474;BMP180;30265;52.408;13.500;2022-11-20T10:56:05;100730.00;;;0.00
18474;BMP180;30265;52.408;13.500;2022-11-20T11:06:34;100727.00;;;0.30
18474;BMP180;30265;52.408;13.500;2022-11-20T11:16:58;100724.00;;;0.60
18474;BMP180;30265;52.408;13.500;2022-11-20T11:27:21;100708.00;;;0.60
18474;BMP180;30265;52.408;13.500;2022-11-20T11:37:42;100698.00;;;0.70
18474;BMP180;30265;52.408;13.500;2022-11-20T11:48:08;100688.00;;;0.80
18474;BMP180;30265;52.408;13.500;2022-11-20T11:58:41;100680.00;;;1.10
18474;BMP180;30265;52.408;13.500;2022-11-20T12:09:09;100681.00;;;1.30
18474;BMP180;30265;52.408;13.500;2022-11-20T12:19:34;100681.00;;;1.80
18474;BMP180;30265;52.408;13.500;2022-11-20T12:30:01;100674.00;;;1.90
18474;BMP180;30265;52.408;13.500;2022-11-20T12:40:30;100662.00;;;1.90
18474;BMP180;30265;52.408;13.500;2022-11-20T12:51:16;100658.00;;;1.60
18474;BMP180;30265;52.408;13.500;2022-11-20T13:01:45;100659.00;;;1.60
18474;BMP180;30265;52.408;13.500;2022-11-20T13:12:16;100660.00;;;1.30
18474;BMP180;30265;52.408;13.500;2022-11-20T13:22:46;100645.00;;;1.20
18474;BMP180;30265;52.408;13.500;2022-11-20T13:33:22;100640.00;;;1.00
18474;BMP180;30265;52.408;13.500;2022-11-20T13:43:47;100631.00;;;1.00
18474;BMP180;30265;52.408;13.500;2022-11-20T13:54:49;100622.00;;;0.90
18474;BMP180;30265;52.408;13.500;2022-11-20T14:05:19;100631.00;;;0.60
18474;BMP180;30265;52.408;13.500;2022-11-20T14:15:44;100627.00;;;0.70
18474;BMP180;30265;52.408;13.500;2022-11-20T14:26:06;100612.00;;;0.80
18474;BMP180;30265;52.408;13.500;2022-11-20T14:36:31;100616.00;;;0.80
18474;BMP180;30265;52.408;13.500;2022-11-20T14:46:52;100622.00;;;0.70
18474;BMP180;30265;52.408;13.500;2022-11-20T14:57:25;100627.00;;;0.60
18474;BMP180;30265;52.408;13.500;2022-11-20T15:07:49;100619.00;;;0.80
18474;BMP180;30265;52.408;13.500;2022-11-20T15:18:17;100620.00;;;0.80
18474;BMP180;30265;52.408;13.500;2022-11-20T15:28:41;100599.00;;;0.90
18474;BMP180;30265;52.408;13.500;2022-11-20T15:39:04;100608.00;;;0.90
18474;BMP180;30265;52.408;13.500;2022-11-20T15:49:27;100613.00;;;0.90
18474;BMP180;30265;52.408;13.500;2022-11-20T15:59:50;100598.00;;;0.80
18474;BMP180;30265;52.408;13.500;2022-11-20T16:10:12;100593.00;;;0.90
18474;BMP180;30265;52.408;13.500;2022-11-20T16:20:36;100589.00;;;0.80
18474;BMP180;30265;52.408;13.500;2022-11-20T16:31:07;100599.00;;;0.70
18474;BMP180;30265;52.408;13.500;2022-11-20T16:41:33;100599.00;;;0.70
18474;BMP180;30265;52.408;13.500;2022-11-20T16:51:55;100590.00;;;0.70
18474;BMP180;30265;52.408;13.500;2022-11-20T17:02:18;100598.00;;;0.70
18474;BMP180;30265;52.408;13.500;2022-11-20T17:12:40;100590.00;;;0.50
18474;BMP180;30265;52.408;13.500;2022-11-20T17:23:05;100586.00;;;0.20
18474;BMP180;30265;52.408;13.500;2022-11-20T17:33:28;100590.00;;;0.00
18474;BMP180;30265;52.408;13.500;2022-11-20T17:43:53;100593.00;;;-0.20
18474;BMP180;30265;52.408;13.500;2022-11-20T17:54:17;100573.00;;;0.00
18474;BMP180;30265;52.408;13.500;2022-11-20T18:04:40;100577.00;;;0.10
18474;BMP180;30265;52.408;13.500;2022-11-20T18:15:05;100551.00;;;-0.10
18474;BMP180;30265;52.408;13.500;2022-11-20T18:25:28;100548.00;;;-0.40
18474;BMP180;30265;52.408;13.500;2022-11-20T18:35:50;100548.00;;;-0.50
18474;BMP180;30265;52.408;13.500;2022-11-20T18:46:13;100532.00;;;-0.60
18474;BMP180;30265;52.408;13.500;2022-11-20T18:56:35;100544.00;;;-0.80
18474;BMP180;30265;52.408;13.500;2022-11-20T19:07:00;100524.00;;;-0.90
18474;BMP180;30265;52.408;13.500;2022-11-20T19:17:22;100542.00;;;-1.10
18474;BMP180;30265;52.408;13.500;2022-11-20T19:27:47;100548.00;;;-1.00
18474;BMP180;30265;52.408;13.500;2022-11-20T19:38:09;100551.00;;;-0.80
18474;BMP180;30265;52.408;13.500;2022-11-20T19:48:35;100552.00;;;-0.60
18474;BMP180;30265;52.408;13.500;2022-11-20T19:58:57;100538.00;;;-0.90
18474;BMP180;30265;52.408;13.500;2022-11-20T20:09:25;100518.00;;;-1.10
18474;BMP180;30265;52.408;13.500;2022-11-20T20:19:49;100520.00;;;-1.40
18474;BMP180;30265;52.408;13.500;2022-11-20T20:30:13;100513.00;;;-1.70
18474;BMP180;30265;52.408;13.500;2022-11-20T20:40:37;100488.00;;;-1.80
18474;BMP180;30265;52.408;13.500;2022-11-20T20:51:01;100495.00;;;-2.00
18474;BMP180;30265;52.408;13.500;2022-11-20T21:01:29;100496.00;;;-2.30
18474;BMP180;30265;52.408;13.500;2022-11-20T21:11:52;100484.00;;;-2.40
18474;BMP180;30265;52.408;13.500;2022-11-20T21:22:13;100462.00;;;-2.30
18474;BMP180;30265;52.408;13.500;2022-11-20T21:32:36;100455.00;;;-2.50
18474;BMP180;30265;52.408;13.500;2022-11-20T21:42:58;100448.00;;;-2.60
18474;BMP180;30265;52.408;13.500;2022-11-20T21:53:21;100441.00;;;-2.60
18474;BMP180;30265;52.408;13.500;2022-11-20T22:03:46;100421.00;;;-2.70
18474;BMP180;30265;52.408;13.500;2022-11-20T22:14:10;100425.00;;;-2.70
18474;BMP180;30265;52.408;13.500;2022-11-20T22:24:41;100419.00;;;-2.80
18474;BMP180;30265;52.408;13.500;2022-11-20T22:35:05;100411.00;;;-2.80
18474;BMP180;30265;52.408;13.500;2022-11-20T22:45:27;100388.00;;;-2.90
18474;BMP180;30265;52.408;13.500;2022-11-20T22:55:50;100361.00;;;-2.90
18474;BMP180;30265;52.408;13.500;2022-11-20T23:06:13;100367.00;;;-2.50
18474;BMP180;30265;52.408;13.500;2022-11-20T23:16:36;100359.00;;;-2.30
18474;BMP180;30265;52.408;13.500;2022-11-20T23:26:58;100346.00;;;-2.10
18474;BMP180;30265;52.408;13.500;2022-11-20T23:37:22;100337.00;;;-2.00
18474;BMP180;30265;52.408;13.500;2022-11-20T23:47:43;100320.00;;;-1.80
18474;BMP180;30265;52.408;13.500;2022-11-20T23:58:06;100303.00;;;-1.60
